sensor_id;sensor_type;location;lat;lon;timestamp;P1;durP1;ratioP1;P2;durP2;ratioP2
51214;SDS011;63849;47.546;19.254;2023-02-23T00:01:53;18.20;;;9.25;;
51214;SDS011;63849;47.546;19.254;2023-02-23T00:04:21;23.13;;;10.27;;
51214;SDS011;63849;47.546;19.254;2023-02-23T00:06:48;21.63;;;9.95;;
51214;SDS011;63849;47.546;19.254;2023-02-23T00:09:20;25.27;;;10.90;;
51214;SDS011;63849;47.546;19.254;2023-02-23T00:11:56;18.00;;;9.30;;
51214;SDS011;63849;47.546;19.254;2023-02-23T00:14:26;20.45;;;10.32;;
51214;SDS011;63849;47.546;19.254;2023-02-23T00:16:56;21.17;;;9.77;;
51214;SDS011;63849;47.546;19.254;2023-02-23T00:19:22;18.02;;;9.55;;
51214;SDS011;63849;47.546;19.254;2023-02-23T00:21:52;19.73;;;10.40;;
51214;SDS011;63849;47.546;19.254;2023-02-23T00:24:18;20.55;;;10.57;;
51214;SDS011;63849;47.546;19.254;2023-02-23T00:26:45;20.33;;;9.55;;
51214;SDS011;63849;47.546;19.254;2023-02-23T00:29:15;22.80;;;9.68;;
51214;SDS011;63849;47.546;19.254;2023-02-23T00:31:43;19.17;;;9.20;;
51214;SDS011;63849;47.546;19.254;2023-02-23T00:34:10;16.58;;;9.07;;
51214;SDS011;63849;47.546;19.254;2023-02-23T00:36:38;21.25;;;9.20;;
51214;SDS011;63849;47.546;19.254;2023-02-23T00:39:05;16.27;;;8.35;;
51214;SDS011;63849;47.546;19.254;2023-02-23T00:41:43;20.10;;;9.25;;
51214;SDS011;63849;47.546;19.254;2023-02-23T00:44:10;21.73;;;9.25;;
51214;SDS011;63849;47.546;19.254;2023-02-23T00:46:39;19.05;;;9.13;;
51214;SDS011;63849;47.546;19.254;2023-02-23T00:49:08;16.50;;;7.43;;
51214;SDS011;63849;47.546;19.254;2023-02-23T00:51:35;14.43;;;8.00;;
51214;SDS011;63849;47.546;19.254;2023-02-23T00:54:01;20.27;;;7.43;;
51214;SDS011;63849;47.546;19.254;2023-02-23T00:56:28;15.55;;;7.43;;
51214;SDS011;63849;47.546;19.254;2023-02-23T00:58:54;21.25;;;7.50;;
51214;SDS011;63849;47.546;19.254;2023-02-23T01:01:20;19.10;;;7.78;;
51214;SDS011;63849;47.546;19.254;2023-02-23T01:03:47;18.15;;;7.78;;
51214;SDS011;63849;47.546;19.254;2023-02-23T01:06:14;19.85;;;7.70;;
51214;SDS011;63849;47.546;19.254;2023-02-23T01:08:41;14.07;;;8.18;;
51214;SDS011;63849;47.546;19.254;2023-02-23T01:11:10;23.40;;;8.25;;
51214;SDS011;63849;47.546;19.254;2023-02-23T01:13:38;18.08;;;7.97;;
51214;SDS011;63849;47.546;19.254;2023-02-23T01:16:06;17.55;;;7.53;;
51214;SDS011;63849;47.546;19.254;2023-02-23T01:18:33;18.25;;;7.35;;
51214;SDS011;63849;47.546;19.254;2023-02-23T01:21:01;19.90;;;7.82;;
51214;SDS011;63849;47.546;19.254;2023-02-23T01:23:29;19.38;;;8.20;;
51214;SDS011;63849;47.546;19.254;2023-02-23T01:25:55;13.85;;;7.63;;
51214;SDS011;63849;47.546;19.254;2023-02-23T01:28:21;18.35;;;7.97;;
51214;SDS011;63849;47.546;19.254;2023-02-23T01:30:47;18.05;;;7.57;;
51214;SDS011;63849;47.546;19.254;2023-02-23T01:33:13;18.38;;;7.82;;
51214;SDS011;63849;47.546;19.254;2023-02-23T01:35:39;19.52;;;8.48;;
51214;SDS011;63849;47.546;19.254;2023-02-23T01:38:05;19.17;;;8.02;;
51214;SDS011;63849;47.546;19.254;2023-02-23T01:40:31;23.52;;;8.00;;
51214;SDS011;63849;47.546;19.254;2023-02-23T01:43:15;26.35;;;8.27;;
51214;SDS011;63849;47.546;19.254;2023-02-23T01:45:45;18.67;;;8.52;;
51214;SDS011;63849;47.546;19.254;2023-02-23T01:53:10;22.08;;;8.73;;
51214;SDS011;63849;47.546;19.254;2023-02-23T01:55:36;19.40;;;8.38;;
51214;SDS011;63849;47.546;19.254;2023-02-23T01:58:12;24.35;;;8.65;;
51214;SDS011;63849;47.546;19.254;2023-02-23T02:03:22;19.80;;;8.38;;
51214;SDS011;63849;47.546;19.254;2023-02-23T02:05:54;22.50;;;8.02;;
51214;SDS011;63849;47.546;19.254;2023-02-23T02:08:21;16.65;;;7.72;;
51214;SDS011;63849;47.546;19.254;2023-02-23T02:10:50;22.13;;;8.93;;
51214;SDS011;63849;47.546;19.254;2023-02-23T02:13:22;22.15;;;8.48;;
51214;SDS011;63849;47.546;19.254;2023-02-23T02:29:26;21.50;;;8.27;;
51214;SDS011;63849;47.546;19.254;2023-02-23T02:32:46;25.58;;;9.10;;
51214;SDS011;63849;47.546;19.254;2023-02-23T02:43:57;14.70;;;8.27;;
51214;SDS011;63849;47.546;19.254;2023-02-23T02:46:40;20.48;;;8.80;;
51214;SDS011;63849;47.546;19.254;2023-02-23T02:49:20;25.08;;;9.73;;
51214;SDS011;63849;47.546;19.254;2023-02-23T02:51:59;19.83;;;8.85;;
51214;SDS011;63849;47.546;19.254;2023-02-23T02:54:37;21.45;;;9.00;;
51214;SDS011;63849;47.546;19.254;2023-02-23T02:57:06;17.45;;;8.55;;
51214;SDS011;63849;47.546;19.254;2023-02-23T02:59:44;20.40;;;8.80;;
51214;SDS011;63849;47.546;19.254;2023-02-23T03:02:30;22.83;;;9.85;;
51214;SDS011;63849;47.546;19.254;2023-02-23T03:05:19;24.70;;;9.55;;
51214;SDS011;63849;47.546;19.254;2023-02-23T03:11:09;20.00;;;9.93;;
51214;SDS011;63849;47.546;19.254;2023-02-23T03:17:00;23.77;;;9.63;;
51214;SDS011;63849;47.546;19.254;2023-02-23T03:19:57;23.67;;;10.02;;
51214;SDS011;63849;47.546;19.254;2023-02-23T03:23:13;21.38;;;9.63;;
51214;SDS011;63849;47.546;19.254;2023-02-23T03:32:29;21.13;;;10.65;;
51214;SDS011;63849;47.546;19.254;2023-02-23T03:35:33;30.33;;;11.52;;
51214;SDS011;63849;47.546;19.254;2023-02-23T03:38:36;26.83;;;11.73;;
51214;SDS011;63849;47.546;19.254;2023-02-23T03:41:36;21.58;;;10.93;;
51214;SDS011;63849;47.546;19.254;2023-02-23T03:44:26;27.02;;;12.20;;
51214;SDS011;63849;47.546;19.254;2023-02-23T03:47:15;30.67;;;12.20;;
51214;SDS011;63849;47.546;19.254;2023-02-23T03:50:04;25.27;;;12.15;;
51214;SDS011;63849;47.546;19.254;2023-02-23T03:52:53;25.00;;;12.75;;
51214;SDS011;63849;47.546;19.254;2023-02-23T03:55:42;25.90;;;12.52;;
51214;SDS011;63849;47.546;19.254;2023-02-23T03:58:30;23.90;;;11.55;;
51214;SDS011;63849;47.546;19.254;2023-02-23T04:01:20;25.90;;;11.70;;
51214;SDS011;63849;47.546;19.254;2023-02-23T04:04:07;23.42;;;12.05;;
51214;SDS011;63849;47.546;19.254;2023-02-23T04:06:54;26.17;;;12.77;;
51214;SDS011;63849;47.546;19.254;2023-02-23T04:09:44;28.35;;;11.82;;
51214;SDS011;63849;47.546;19.254;2023-02-23T04:15:06;24.25;;;12.55;;
51214;SDS011;63849;47.546;19.254;2023-02-23T04:17:36;21.80;;;12.45;;
51214;SDS011;63849;47.546;19.254;2023-02-23T04:20:01;21.77;;;12.40;;
51214;SDS011;63849;47.546;19.254;2023-02-23T04:22:28;26.25;;;12.38;;
51214;SDS011;63849;47.546;19.254;2023-02-23T04:24:55;26.90;;;12.40;;
51214;SDS011;63849;47.546;19.254;2023-02-23T04:27:25;26.25;;;12.60;;
51214;SDS011;63849;47.546;19.254;2023-02-23T04:29:50;21.77;;;11.43;;
51214;SDS011;63849;47.546;19.254;2023-02-23T04:32:17;26.20;;;12.23;;
51214;SDS011;63849;47.546;19.254;2023-02-23T04:34:45;24.00;;;12.52;;
51214;SDS011;63849;47.546;19.254;2023-02-23T04:37:11;22.75;;;12.15;;
51214;SDS011;63849;47.546;19.254;2023-02-23T04:39:37;21.88;;;11.65;;
51214;SDS011;63849;47.546;19.254;2023-02-23T04:42:03;24.90;;;11.45;;
51214;SDS011;63849;47.546;19.254;2023-02-23T04:44:30;26.58;;;12.65;;
51214;SDS011;63849;47.546;19.254;2023-02-23T04:46:56;25.98;;;13.45;;
51214;SDS011;63849;47.546;19.254;2023-02-23T04:49:22;26.67;;;12.52;;
51214;SDS011;63849;47.546;19.254;2023-02-23T04:51:48;24.40;;;12.27;;
51214;SDS011;63849;47.546;19.254;2023-02-23T04:54:14;22.52;;;11.90;;
51214;SDS011;63849;47.546;19.254;2023-02-23T04:56:40;26.23;;;12.65;;
51214;SDS011;63849;47.546;19.254;2023-02-23T04:59:06;27.65;;;12.95;;
51214;SDS011;63849;47.546;19.254;2023-02-23T05:01:31;24.52;;;12.45;;
51214;SDS011;63849;47.546;19.254;2023-02-23T05:03:58;26.98;;;12.90;;
51214;SDS011;63849;47.546;19.254;2023-02-23T05:06:24;26.23;;;12.13;;
51214;SDS011;63849;47.546;19.254;2023-02-23T05:08:50;21.73;;;12.38;;
51214;SDS011;63849;47.546;19.254;2023-02-23T05:11:16;27.50;;;13.07;;
51214;SDS011;63849;47.546;19.254;2023-02-23T05:13:42;24.42;;;12.43;;
51214;SDS011;63849;47.546;19.254;2023-02-23T05:16:07;22.75;;;12.18;;
51214;SDS011;63849;47.546;19.254;2023-02-23T05:18:33;24.70;;;13.25;;
51214;SDS011;63849;47.546;19.254;2023-02-23T05:21:03;25.00;;;13.15;;
51214;SDS011;63849;47.546;19.254;2023-02-23T05:23:31;24.65;;;12.73;;
51214;SDS011;63849;47.546;19.254;2023-02-23T05:26:04;18.85;;;11.95;;
51214;SDS011;63849;47.546;19.254;2023-02-23T05:28:33;23.45;;;11.82;;
51214;SDS011;63849;47.546;19.254;2023-02-23T05:31:00;23.08;;;12.52;;
51214;SDS011;63849;47.546;19.254;2023-02-23T05:33:28;20.90;;;12.02;;
51214;SDS011;63849;47.546;19.254;2023-02-23T05:35:57;26.23;;;11.73;;
51214;SDS011;63849;47.546;19.254;2023-02-23T05:38:23;26.70;;;12.70;;
51214;SDS011;63849;47.546;19.254;2023-02-23T05:40:50;22.73;;;11.98;;
51214;SDS011;63849;47.546;19.254;2023-02-23T05:43:16;22.65;;;12.57;;
51214;SDS011;63849;47.546;19.254;2023-02-23T05:45:44;23.63;;;12.10;;
51214;SDS011;63849;47.546;19.254;2023-02-23T05:48:10;20.60;;;11.52;;
51214;SDS011;63849;47.546;19.254;2023-02-23T05:50:36;29.17;;;12.10;;
51214;SDS011;63849;47.546;19.254;2023-02-23T05:53:02;21.20;;;11.57;;
51214;SDS011;63849;47.546;19.254;2023-02-23T05:55:28;22.73;;;10.93;;
51214;SDS011;63849;47.546;19.254;2023-02-23T05:57:54;31.98;;;12.95;;
51214;SDS011;63849;47.546;19.254;2023-02-23T06:00:20;21.17;;;11.32;;
51214;SDS011;63849;47.546;19.254;2023-02-23T06:02:47;22.27;;;11.38;;
51214;SDS011;63849;47.546;19.254;2023-02-23T06:05:14;25.88;;;11.80;;
51214;SDS011;63849;47.546;19.254;2023-02-23T06:07:40;24.10;;;11.38;;
51214;SDS011;63849;47.546;19.254;2023-02-23T06:10:06;27.25;;;13.38;;
51214;SDS011;63849;47.546;19.254;2023-02-23T06:12:32;22.98;;;11.52;;
51214;SDS011;63849;47.546;19.254;2023-02-23T06:14:58;23.70;;;12.48;;
51214;SDS011;63849;47.546;19.254;2023-02-23T06:17:24;22.65;;;11.50;;
51214;SDS011;63849;47.546;19.254;2023-02-23T06:19:52;23.80;;;10.50;;
51214;SDS011;63849;47.546;19.254;2023-02-23T06:22:18;22.70;;;11.32;;
51214;SDS011;63849;47.546;19.254;2023-02-23T06:24:43;23.30;;;11.00;;
51214;SDS011;63849;47.546;19.254;2023-02-23T06:27:09;23.95;;;10.73;;
51214;SDS011;63849;47.546;19.254;2023-02-23T06:29:36;24.67;;;10.50;;
51214;SDS011;63849;47.546;19.254;2023-02-23T06:32:02;23.33;;;10.27;;
51214;SDS011;63849;47.546;19.254;2023-02-23T06:34:29;20.13;;;11.13;;
51214;SDS011;63849;47.546;19.254;2023-02-23T06:36:55;21.92;;;11.07;;
51214;SDS011;63849;47.546;19.254;2023-02-23T06:39:21;21.75;;;9.23;;
51214;SDS011;63849;47.546;19.254;2023-02-23T06:41:55;24.90;;;10.40;;
51214;SDS011;63849;47.546;19.254;2023-02-23T06:44:27;24.70;;;11.10;;
51214;SDS011;63849;47.546;19.254;2023-02-23T06:50:11;18.80;;;9.95;;
51214;SDS011;63849;47.546;19.254;2023-02-23T06:53:15;20.35;;;9.82;;
51214;SDS011;63849;47.546;19.254;2023-02-23T06:55:51;17.17;;;9.90;;
51214;SDS011;63849;47.546;19.254;2023-02-23T06:58:17;25.40;;;10.10;;
51214;SDS011;63849;47.546;19.254;2023-02-23T07:00:45;23.70;;;10.98;;
51214;SDS011;63849;47.546;19.254;2023-02-23T07:03:16;26.52;;;9.65;;
51214;SDS011;63849;47.546;19.254;2023-02-23T07:05:43;19.77;;;9.48;;
51214;SDS011;63849;47.546;19.254;2023-02-23T07:08:09;19.98;;;9.30;;
51214;SDS011;63849;47.546;19.254;2023-02-23T07:10:37;17.80;;;10.55;;
51214;SDS011;63849;47.546;19.254;2023-02-23T07:13:03;21.88;;;11.05;;
51214;SDS011;63849;47.546;19.254;2023-02-23T07:15:29;23.30;;;10.05;;
51214;SDS011;63849;47.546;19.254;2023-02-23T07:17:54;20.23;;;10.18;;
51214;SDS011;63849;47.546;19.254;2023-02-23T07:20:20;24.55;;;10.30;;
51214;SDS011;63849;47.546;19.254;2023-02-23T07:22:46;26.80;;;13.73;;
51214;SDS011;63849;47.546;19.254;2023-02-23T07:25:12;28.83;;;13.25;;
51214;SDS011;63849;47.546;19.254;2023-02-23T07:27:38;23.52;;;11.23;;
51214;SDS011;63849;47.546;19.254;2023-02-23T07:30:06;20.88;;;12.18;;
51214;SDS011;63849;47.546;19.254;2023-02-23T07:32:32;17.90;;;10.13;;
51214;SDS011;63849;47.546;19.254;2023-02-23T07:34:58;21.55;;;10.15;;
51214;SDS011;63849;47.546;19.254;2023-02-23T07:37:27;30.95;;;11.95;;
51214;SDS011;63849;47.546;19.254;2023-02-23T07:39:53;31.10;;;13.70;;
51214;SDS011;63849;47.546;19.254;2023-02-23T07:42:18;27.38;;;12.77;;
51214;SDS011;63849;47.546;19.254;2023-02-23T07:44:44;29.17;;;11.82;;
51214;SDS011;63849;47.546;19.254;2023-02-23T07:47:11;28.63;;;12.82;;
51214;SDS011;63849;47.546;19.254;2023-02-23T07:49:37;22.48;;;11.75;;
51214;SDS011;63849;47.546;19.254;2023-02-23T07:52:03;23.15;;;12.77;;
51214;SDS011;63849;47.546;19.254;2023-02-23T07:54:29;31.88;;;13.55;;
51214;SDS011;63849;47.546;19.254;2023-02-23T07:56:55;29.85;;;14.15;;
51214;SDS011;63849;47.546;19.254;2023-02-23T07:59:20;26.23;;;13.35;;
51214;SDS011;63849;47.546;19.254;2023-02-23T08:01:46;23.80;;;11.52;;
51214;SDS011;63849;47.546;19.254;2023-02-23T08:04:16;26.77;;;12.02;;
51214;SDS011;63849;47.546;19.254;2023-02-23T08:06:43;22.83;;;11.45;;
51214;SDS011;63849;47.546;19.254;2023-02-23T08:09:09;25.02;;;11.48;;
51214;SDS011;63849;47.546;19.254;2023-02-23T08:11:36;26.83;;;12.70;;
51214;SDS011;63849;47.546;19.254;2023-02-23T08:14:02;24.67;;;12.43;;
51214;SDS011;63849;47.546;19.254;2023-02-23T08:16:29;19.10;;;12.32;;
51214;SDS011;63849;47.546;19.254;2023-02-23T08:18:57;23.13;;;10.32;;
51214;SDS011;63849;47.546;19.254;2023-02-23T08:21:24;21.63;;;10.55;;
51214;SDS011;63849;47.546;19.254;2023-02-23T08:23:50;20.25;;;11.60;;
51214;SDS011;63849;47.546;19.254;2023-02-23T08:26:16;22.23;;;11.00;;
51214;SDS011;63849;47.546;19.254;2023-02-23T08:28:43;19.08;;;9.98;;
51214;SDS011;63849;47.546;19.254;2023-02-23T08:31:13;19.65;;;9.73;;
51214;SDS011;63849;47.546;19.254;2023-02-23T08:33:43;19.30;;;9.83;;
51214;SDS011;63849;47.546;19.254;2023-02-23T08:36:13;20.27;;;10.75;;
51214;SDS011;63849;47.546;19.254;2023-02-23T08:38:39;19.73;;;11.13;;
51214;SDS011;63849;47.546;19.254;2023-02-23T08:41:07;19.60;;;10.20;;
51214;SDS011;63849;47.546;19.254;2023-02-23T08:43:34;22.00;;;10.32;;
51214;SDS011;63849;47.546;19.254;2023-02-23T08:53:35;19.48;;;9.65;;
51214;SDS011;63849;47.546;19.254;2023-02-23T08:56:15;19.13;;;9.65;;
51214;SDS011;63849;47.546;19.254;2023-02-23T09:05:10;19.45;;;8.70;;
51214;SDS011;63849;47.546;19.254;2023-02-23T09:07:39;24.30;;;10.75;;
51214;SDS011;63849;47.546;19.254;2023-02-23T09:10:15;19.52;;;10.10;;
51214;SDS011;63849;47.546;19.254;2023-02-23T09:13:03;21.27;;;9.57;;
51214;SDS011;63849;47.546;19.254;2023-02-23T09:15:29;20.60;;;10.27;;
51214;SDS011;63849;47.546;19.254;2023-02-23T09:18:01;19.20;;;9.35;;
51214;SDS011;63849;47.546;19.254;2023-02-23T09:20:41;18.13;;;9.77;;
51214;SDS011;63849;47.546;19.254;2023-02-23T09:30:31;16.55;;;9.80;;
51214;SDS011;63849;47.546;19.254;2023-02-23T09:33:03;21.10;;;10.07;;
51214;SDS011;63849;47.546;19.254;2023-02-23T09:35:36;17.52;;;8.93;;
51214;SDS011;63849;47.546;19.254;2023-02-23T09:49:56;17.10;;;9.75;;
51214;SDS011;63849;47.546;19.254;2023-02-23T09:52:43;17.20;;;9.13;;
51214;SDS011;63849;47.546;19.254;2023-02-23T10:25:55;17.83;;;10.02;;
51214;SDS011;63849;47.546;19.254;2023-02-23T10:36:56;16.38;;;7.63;;
51214;SDS011;63849;47.546;19.254;2023-02-23T10:39:53;14.63;;;8.30;;
51214;SDS011;63849;47.546;19.254;2023-02-23T10:42:23;19.95;;;9.35;;
51214;SDS011;63849;47.546;19.254;2023-02-23T10:44:56;17.48;;;8.63;;
51214;SDS011;63849;47.546;19.254;2023-02-23T10:47:26;24.35;;;9.57;;
51214;SDS011;63849;47.546;19.254;2023-02-23T10:49:57;21.30;;;10.77;;
51214;SDS011;63849;47.546;19.254;2023-02-23T10:52:44;26.02;;;12.27;;
51214;SDS011;63849;47.546;19.254;2023-02-23T10:55:19;19.05;;;9.65;;
51214;SDS011;63849;47.546;19.254;2023-02-23T10:57:59;18.30;;;9.00;;
51214;SDS011;63849;47.546;19.254;2023-02-23T11:01:00;17.52;;;8.73;;
51214;SDS011;63849;47.546;19.254;2023-02-23T11:05:57;20.83;;;10.65;;
51214;SDS011;63849;47.546;19.254;2023-02-23T11:10:57;23.60;;;12.40;;
51214;SDS011;63849;47.546;19.254;2023-02-23T11:13:34;18.77;;;9.10;;
51214;SDS011;63849;47.546;19.254;2023-02-23T11:16:50;17.20;;;8.63;;
51214;SDS011;63849;47.546;19.254;2023-02-23T11:19:03;19.05;;;9.95;;
51214;SDS011;63849;47.546;19.254;2023-02-23T11:21:33;17.77;;;9.70;;
51214;SDS011;63849;47.546;19.254;2023-02-23T11:24:12;17.70;;;9.13;;
51214;SDS011;63849;47.546;19.254;2023-02-23T11:26:41;16.52;;;9.65;;
51214;SDS011;63849;47.546;19.254;2023-02-23T11:32:33;23.38;;;12.25;;
51214;SDS011;63849;47.546;19.254;2023-02-23T11:37:49;17.05;;;9.75;;
51214;SDS011;63849;47.546;19.254;2023-02-23T11:40:38;20.00;;;11.25;;
51214;SDS011;63849;47.546;19.254;2023-02-23T11:45:30;14.77;;;9.40;;
51214;SDS011;63849;47.546;19.254;2023-02-23T11:48:03;17.50;;;9.63;;
51214;SDS011;63849;47.546;19.254;2023-02-23T11:50:33;18.02;;;10.15;;
51214;SDS011;63849;47.546;19.254;2023-02-23T11:53:02;21.95;;;10.35;;
51214;SDS011;63849;47.546;19.254;2023-02-23T11:55:50;19.15;;;10.27;;
51214;SDS011;63849;47.546;19.254;2023-02-23T11:58:23;18.85;;;10.52;;
51214;SDS011;63849;47.546;19.254;2023-02-23T12:00:54;17.85;;;9.80;;
51214;SDS011;63849;47.546;19.254;2023-02-23T12:03:25;16.38;;;9.05;;
51214;SDS011;63849;47.546;19.254;2023-02-23T12:05:54;25.58;;;10.40;;
51214;SDS011;63849;47.546;19.254;2023-02-23T12:08:33;16.25;;;9.43;;
51214;SDS011;63849;47.546;19.254;2023-02-23T12:11:12;13.57;;;9.25;;
51214;SDS011;63849;47.546;19.254;2023-02-23T12:13:46;13.15;;;9.20;;
51214;SDS011;63849;47.546;19.254;2023-02-23T12:16:22;20.65;;;10.38;;
51214;SDS011;63849;47.546;19.254;2023-02-23T12:21:28;23.30;;;13.05;;
51214;SDS011;63849;47.546;19.254;2023-02-23T12:24:05;22.17;;;11.00;;
51214;SDS011;63849;47.546;19.254;2023-02-23T12:27:01;30.95;;;16.25;;
51214;SDS011;63849;47.546;19.254;2023-02-23T12:32:22;20.02;;;10.98;;
51214;SDS011;63849;47.546;19.254;2023-02-23T12:50:55;17.63;;;10.35;;
51214;SDS011;63849;47.546;19.254;2023-02-23T13:07:28;22.38;;;9.75;;
51214;SDS011;63849;47.546;19.254;2023-02-23T13:10:11;17.45;;;9.10;;
51214;SDS011;63849;47.546;19.254;2023-02-23T13:13:00;19.13;;;9.55;;
51214;SDS011;63849;47.546;19.254;2023-02-23T13:16:00;16.70;;;10.38;;
51214;SDS011;63849;47.546;19.254;2023-02-23T13:31:40;18.70;;;9.77;;
51214;SDS011;63849;47.546;19.254;2023-02-23T13:34:11;19.25;;;10.13;;
51214;SDS011;63849;47.546;19.254;2023-02-23T13:36:45;20.48;;;11.15;;
51214;SDS011;63849;47.546;19.254;2023-02-23T13:56:17;19.02;;;9.93;;
51214;SDS011;63849;47.546;19.254;2023-02-23T13:58:59;20.27;;;10.80;;
51214;SDS011;63849;47.546;19.254;2023-02-23T14:01:37;25.13;;;11.40;;
51214;SDS011;63849;47.546;19.254;2023-02-23T14:04:05;20.88;;;11.15;;
51214;SDS011;63849;47.546;19.254;2023-02-23T14:06:37;29.33;;;12.73;;
51214;SDS011;63849;47.546;19.254;2023-02-23T14:09:12;21.88;;;10.48;;
51214;SDS011;63849;47.546;19.254;2023-02-23T14:14:47;18.13;;;10.38;;
51214;SDS011;63849;47.546;19.254;2023-02-23T14:19:42;18.02;;;10.10;;
51214;SDS011;63849;47.546;19.254;2023-02-23T14:22:28;21.45;;;10.35;;
51214;SDS011;63849;47.546;19.254;2023-02-23T14:27:57;23.90;;;11.55;;
51214;SDS011;63849;47.546;19.254;2023-02-23T14:30:28;22.85;;;10.63;;
51214;SDS011;63849;47.546;19.254;2023-02-23T14:33:32;15.70;;;10.30;;
51214;SDS011;63849;47.546;19.254;2023-02-23T14:41:25;23.20;;;14.45;;
51214;SDS011;63849;47.546;19.254;2023-02-23T14:44:34;22.10;;;12.23;;
51214;SDS011;63849;47.546;19.254;2023-02-23T14:49:41;23.52;;;11.55;;
51214;SDS011;63849;47.546;19.254;2023-02-23T14:52:13;22.50;;;11.68;;
51214;SDS011;63849;47.546;19.254;2023-02-23T14:54:45;28.52;;;16.08;;
51214;SDS011;63849;47.546;19.254;2023-02-23T14:57:24;26.80;;;15.07;;
51214;SDS011;63849;47.546;19.254;2023-02-23T14:59:51;27.40;;;15.57;;
51214;SDS011;63849;47.546;19.254;2023-02-23T15:02:25;31.08;;;17.10;;
51214;SDS011;63849;47.546;19.254;2023-02-23T15:04:53;33.45;;;18.92;;
51214;SDS011;63849;47.546;19.254;2023-02-23T15:10:27;33.75;;;20.92;;
51214;SDS011;63849;47.546;19.254;2023-02-23T15:13:34;35.80;;;18.83;;
51214;SDS011;63849;47.546;19.254;2023-02-23T15:16:04;33.28;;;18.98;;
51214;SDS011;63849;47.546;19.254;2023-02-23T15:18:36;23.77;;;13.95;;
51214;SDS011;63849;47.546;19.254;2023-02-23T15:21:08;23.13;;;12.93;;
51214;SDS011;63849;47.546;19.254;2023-02-23T15:23:43;21.23;;;13.35;;
51214;SDS011;63849;47.546;19.254;2023-02-23T15:26:29;30.05;;;16.58;;
51214;SDS011;63849;47.546;19.254;2023-02-23T15:31:31;28.95;;;17.88;;
51214;SDS011;63849;47.546;19.254;2023-02-23T15:33:58;27.02;;;17.67;;
51214;SDS011;63849;47.546;19.254;2023-02-23T15:36:28;25.08;;;15.77;;
51214;SDS011;63849;47.546;19.254;2023-02-23T15:38:58;23.45;;;12.30;;
51214;SDS011;63849;47.546;19.254;2023-02-23T15:41:32;20.67;;;12.65;;
51214;SDS011;63849;47.546;19.254;2023-02-23T15:46:35;20.27;;;13.15;;
51214;SDS011;63849;47.546;19.254;2023-02-23T15:49:02;22.30;;;12.40;;
51214;SDS011;63849;47.546;19.254;2023-02-23T15:51:35;23.70;;;13.82;;
51214;SDS011;63849;47.546;19.254;2023-02-23T15:54:17;27.23;;;14.27;;
51214;SDS011;63849;47.546;19.254;2023-02-23T15:57:03;26.00;;;15.23;;
51214;SDS011;63849;47.546;19.254;2023-02-23T15:59:35;29.60;;;15.98;;
51214;SDS011;63849;47.546;19.254;2023-02-23T16:02:08;29.98;;;15.23;;
51214;SDS011;63849;47.546;19.254;2023-02-23T16:04:43;28.73;;;15.70;;
51214;SDS011;63849;47.546;19.254;2023-02-23T16:07:25;29.10;;;16.50;;
51214;SDS011;63849;47.546;19.254;2023-02-23T16:10:04;31.67;;;16.23;;
51214;SDS011;63849;47.546;19.254;2023-02-23T16:12:45;37.65;;;21.08;;
51214;SDS011;63849;47.546;19.254;2023-02-23T16:15:22;34.58;;;20.00;;
51214;SDS011;63849;47.546;19.254;2023-02-23T16:18:01;36.63;;;21.10;;
51214;SDS011;63849;47.546;19.254;2023-02-23T17:16:01;121.47;;;70.85;;
51214;SDS011;63849;47.546;19.254;2023-02-23T17:37:05;75.25;;;48.95;;
51214;SDS011;63849;47.546;19.254;2023-02-23T17:39:31;60.42;;;39.42;;
51214;SDS011;63849;47.546;19.254;2023-02-23T17:41:57;59.40;;;35.20;;
51214;SDS011;63849;47.546;19.254;2023-02-23T17:44:23;58.95;;;36.22;;
51214;SDS011;63849;47.546;19.254;2023-02-23T17:46:48;65.53;;;39.72;;
51214;SDS011;63849;47.546;19.254;2023-02-23T17:49:14;77.82;;;45.15;;
51214;SDS011;63849;47.546;19.254;2023-02-23T17:51:40;94.65;;;54.85;;
51214;SDS011;63849;47.546;19.254;2023-02-23T17:54:06;89.18;;;48.92;;
51214;SDS011;63849;47.546;19.254;2023-02-23T17:56:31;80.43;;;46.30;;
51214;SDS011;63849;47.546;19.254;2023-02-23T17:58:57;54.10;;;33.83;;
51214;SDS011;63849;47.546;19.254;2023-02-23T18:01:23;50.65;;;29.58;;
51214;SDS011;63849;47.546;19.254;2023-02-23T18:03:50;35.78;;;24.02;;
51214;SDS011;63849;47.546;19.254;2023-02-23T18:06:16;39.25;;;24.60;;
51214;SDS011;63849;47.546;19.254;2023-02-23T18:08:44;40.28;;;24.20;;
51214;SDS011;63849;47.546;19.254;2023-02-23T18:11:10;32.35;;;21.33;;
51214;SDS011;63849;47.546;19.254;2023-02-23T18:13:36;38.25;;;20.80;;
51214;SDS011;63849;47.546;19.254;2023-02-23T18:16:03;35.08;;;23.08;;
51214;SDS011;63849;47.546;19.254;2023-02-23T18:18:33;35.85;;;20.67;;
51214;SDS011;63849;47.546;19.254;2023-02-23T18:21:01;56.05;;;30.77;;
51214;SDS011;63849;47.546;19.254;2023-02-23T18:23:27;56.25;;;34.17;;
51214;SDS011;63849;47.546;19.254;2023-02-23T18:26:02;28.17;;;19.52;;
51214;SDS011;63849;47.546;19.254;2023-02-23T18:28:30;26.58;;;15.75;;
51214;SDS011;63849;47.546;19.254;2023-02-23T18:30:56;32.10;;;19.17;;
51214;SDS011;63849;47.546;19.254;2023-02-23T18:33:22;41.47;;;26.33;;
51214;SDS011;63849;47.546;19.254;2023-02-23T18:35:48;48.83;;;32.70;;
51214;SDS011;63849;47.546;19.254;2023-02-23T18:38:14;39.42;;;24.67;;
51214;SDS011;63849;47.546;19.254;2023-02-23T18:40:40;26.27;;;15.02;;
51214;SDS011;63849;47.546;19.254;2023-02-23T18:43:06;26.90;;;16.17;;
51214;SDS011;63849;47.546;19.254;2023-02-23T18:45:32;33.53;;;21.20;;
51214;SDS011;63849;47.546;19.254;2023-02-23T18:47:58;38.42;;;23.80;;
51214;SDS011;63849;47.546;19.254;2023-02-23T18:50:24;35.33;;;23.00;;
51214;SDS011;63849;47.546;19.254;2023-02-23T18:52:52;40.42;;;25.63;;
51214;SDS011;63849;47.546;19.254;2023-02-23T18:55:22;38.50;;;23.60;;
51214;SDS011;63849;47.546;19.254;2023-02-23T18:57:49;33.28;;;22.90;;
51214;SDS011;63849;47.546;19.254;2023-02-23T19:00:16;35.90;;;19.70;;
51214;SDS011;63849;47.546;19.254;2023-02-23T19:02:44;25.20;;;15.35;;
51214;SDS011;63849;47.546;19.254;2023-02-23T19:05:13;29.55;;;16.77;;
51214;SDS011;63849;47.546;19.254;2023-02-23T19:07:40;31.40;;;17.60;;
51214;SDS011;63849;47.546;19.254;2023-02-23T19:10:06;25.40;;;15.65;;
51214;SDS011;63849;47.546;19.254;2023-02-23T19:12:36;29.85;;;16.05;;
51214;SDS011;63849;47.546;19.254;2023-02-23T19:15:02;27.70;;;16.95;;
51214;SDS011;63849;47.546;19.254;2023-02-23T19:17:31;26.15;;;17.08;;
51214;SDS011;63849;47.546;19.254;2023-02-23T19:19:57;27.92;;;16.73;;
51214;SDS011;63849;47.546;19.254;2023-02-23T19:22:25;27.25;;;17.80;;
51214;SDS011;63849;47.546;19.254;2023-02-23T19:24:54;31.67;;;19.25;;
51214;SDS011;63849;47.546;19.254;2023-02-23T19:27:20;33.17;;;20.58;;
51214;SDS011;63849;47.546;19.254;2023-02-23T19:29:46;30.88;;;19.58;;
51214;SDS011;63849;47.546;19.254;2023-02-23T19:32:13;29.58;;;18.30;;
51214;SDS011;63849;47.546;19.254;2023-02-23T19:34:42;35.17;;;20.67;;
51214;SDS011;63849;47.546;19.254;2023-02-23T19:37:10;46.08;;;26.45;;
51214;SDS011;63849;47.546;19.254;2023-02-23T19:39:36;48.33;;;27.80;;